< < Back
Terminal Aerodrome Forecast


Current Version              Previous Versions:   1  2  3  4  5  6  7  8  9  

Terminal Aerodrome Forecast

197
FTUS44 KBMX 210600 RRA
TAFTCL
TAF
KTCL 210658Z 2107/2206 00000KT P6SM SCT250
     FM211500 26007KT P6SM SCT040=

Latest METAR

976
SAUS70 KWBC 210200 RRV
MTRTCL
METAR KTCL 220153Z AUTO 00000KT 10SM CLR 24/21 A2997 RMK AO2 SLP146
T02390206


USA.gov is the U.S. government's official web portal to all federal, state and local government web resources and services.